createdAt,value
2022-10-06T00:01:19.358Z,19.00
2022-10-06T00:05:20.535Z,18.70
2022-10-06T00:09:21.500Z,18.90
2022-10-06T00:13:26.620Z,18.10
2022-10-06T00:17:27.562Z,17.90
2022-10-06T00:21:28.487Z,18.40
2022-10-06T00:25:29.677Z,18.70
2022-10-06T00:29:30.730Z,18.00
2022-10-06T00:33:31.751Z,18.10
2022-10-06T00:37:37.593Z,18.00
2022-10-06T00:41:38.756Z,18.90
2022-10-06T00:45:43.539Z,18.60
2022-10-06T00:49:45.836Z,19.00
2022-10-06T00:53:47.061Z,18.60
2022-10-06T00:57:49.490Z,18.60
2022-10-06T01:02:03.124Z,19.60
2022-10-06T01:06:04.627Z,18.50
2022-10-06T01:10:05.966Z,18.70
2022-10-06T01:14:06.995Z,18.70
2022-10-06T01:18:12.550Z,18.10
2022-10-06T01:22:16.028Z,18.50
2022-10-06T01:26:18.780Z,18.70
2022-10-06T01:30:29.166Z,16.60
2022-10-06T01:34:30.106Z,16.50
2022-10-06T01:38:31.633Z,16.20
2022-10-06T01:42:34.938Z,16.10
2022-10-06T01:46:35.924Z,16.80
2022-10-06T01:50:36.830Z,16.20
2022-10-06T01:54:38.076Z,15.70
2022-10-06T01:58:38.919Z,16.10
2022-10-06T02:02:40.670Z,15.50
2022-10-06T02:06:41.643Z,15.60
2022-10-06T02:10:42.570Z,16.10
2022-10-06T02:14:43.395Z,15.70
2022-10-06T02:18:44.488Z,16.10
2022-10-06T02:22:45.426Z,16.20
2022-10-06T02:26:46.349Z,15.60
2022-10-06T02:30:47.817Z,15.50
2022-10-06T02:34:49.214Z,15.90
2022-10-06T02:38:50.186Z,16.20
2022-10-06T02:42:51.156Z,16.50
2022-10-06T02:46:53.040Z,15.00
2022-10-06T02:50:56.513Z,16.10
2022-10-06T02:54:57.572Z,15.60
2022-10-06T02:58:58.437Z,15.90
2022-10-06T03:02:59.902Z,16.50
2022-10-06T03:07:01.201Z,16.70
2022-10-06T03:11:03.478Z,16.80
2022-10-06T03:15:05.237Z,16.60
2022-10-06T03:19:07.485Z,17.40
2022-10-06T03:23:13.338Z,16.50
2022-10-06T03:27:11.308Z,15.10
2022-10-06T03:31:12.785Z,15.60
2022-10-06T03:35:13.946Z,16.40
2022-10-06T03:39:15.216Z,16.40
2022-10-06T03:43:16.073Z,16.90
2022-10-06T03:47:17.706Z,17.00
2022-10-06T03:51:25.373Z,15.90
2022-10-06T03:55:26.317Z,16.80
2022-10-06T03:59:29.263Z,17.00
2022-10-06T04:03:30.659Z,15.90
2022-10-06T04:07:31.631Z,15.40
2022-10-06T04:11:35.535Z,15.90
2022-10-06T04:15:36.689Z,17.10
2022-10-06T04:19:37.712Z,16.60
2022-10-06T04:23:38.833Z,16.60
2022-10-06T04:27:39.736Z,16.10
2022-10-06T04:31:41.783Z,16.30
2022-10-06T04:35:42.764Z,16.10
2022-10-06T04:39:43.625Z,17.30
2022-10-06T04:43:46.111Z,17.00
2022-10-06T04:47:49.086Z,16.70
2022-10-06T04:51:50.108Z,16.80
2022-10-06T04:56:09.728Z,15.50
2022-10-06T05:00:23.989Z,15.80
2022-10-06T05:04:24.913Z,15.60
2022-10-06T05:08:26.236Z,15.30
2022-10-06T05:12:29.476Z,15.50
2022-10-06T05:16:31.072Z,15.10
2022-10-06T05:20:32.129Z,14.10
2022-10-06T05:24:33.008Z,15.20
2022-10-06T05:28:34.648Z,14.90
2022-10-06T05:32:36.302Z,14.90
2022-10-06T05:36:37.328Z,14.90
2022-10-06T05:40:38.284Z,13.90
2022-10-06T05:44:39.263Z,14.60
2022-10-06T05:48:40.215Z,14.40
2022-10-06T05:52:41.469Z,14.40
2022-10-06T05:56:42.500Z,15.20
2022-10-06T06:00:43.441Z,15.30
2022-10-06T06:04:44.329Z,15.30
2022-10-06T06:08:45.815Z,15.20
2022-10-06T06:12:47.083Z,15.00
2022-10-06T06:16:48.200Z,15.60
2022-10-06T06:21:00.553Z,14.90
2022-10-06T06:25:01.444Z,15.10
2022-10-06T06:29:03.611Z,15.70
2022-10-06T06:33:04.708Z,15.40
2022-10-06T06:37:09.420Z,14.90
2022-10-06T06:41:16.671Z,14.20
2022-10-06T06:45:17.622Z,14.60
2022-10-06T06:49:19.999Z,14.40
2022-10-06T06:53:21.112Z,13.90
2022-10-06T06:57:22.163Z,14.90
2022-10-06T07:01:23.433Z,15.10
2022-10-06T07:05:24.674Z,14.60
2022-10-06T07:09:26.362Z,15.80
2022-10-06T07:13:27.308Z,15.30
2022-10-06T07:17:46.771Z,15.10
2022-10-06T07:22:12.789Z,15.50
2022-10-06T07:26:13.686Z,14.90
2022-10-06T07:30:18.542Z,14.90
2022-10-06T07:34:19.389Z,16.20
2022-10-06T07:38:24.557Z,15.70
2022-10-06T07:42:25.432Z,16.50
2022-10-06T07:46:29.160Z,16.70
2022-10-06T07:50:30.295Z,14.90
2022-10-06T07:54:31.579Z,15.10
2022-10-06T07:58:34.031Z,14.70
2022-10-06T08:02:36.282Z,15.10
2022-10-06T08:06:38.056Z,15.50
2022-10-06T08:10:40.521Z,15.80
2022-10-06T08:14:41.622Z,16.40
2022-10-06T08:18:47.346Z,16.10
2022-10-06T08:22:47.720Z,16.70
2022-10-06T08:26:48.779Z,16.50
2022-10-06T08:30:51.715Z,16.60
2022-10-06T08:34:54.133Z,15.70
2022-10-06T08:38:55.708Z,15.50
2022-10-06T08:43:00.453Z,15.70
2022-10-06T08:47:10.040Z,16.00
2022-10-06T08:51:20.968Z,15.90
2022-10-06T08:55:35.145Z,16.40
2022-10-06T08:59:37.065Z,16.10
2022-10-06T09:03:38.962Z,15.60
2022-10-06T09:07:47.766Z,15.80
2022-10-06T09:11:53.012Z,15.80
2022-10-06T09:16:00.699Z,16.00
2022-10-06T09:20:23.696Z,16.00
2022-10-06T09:24:46.262Z,16.30
2022-10-06T09:28:45.778Z,17.00
2022-10-06T09:32:58.286Z,17.30
2022-10-06T09:37:02.561Z,17.50
2022-10-06T09:41:04.420Z,18.50
2022-10-06T09:45:14.154Z,16.70
2022-10-06T09:49:26.825Z,17.20
2022-10-06T09:53:27.746Z,17.50
2022-10-06T09:57:30.696Z,17.30
2022-10-06T10:01:31.882Z,16.80
2022-10-06T10:05:36.015Z,16.90
2022-10-06T10:09:36.998Z,17.70
2022-10-06T10:13:44.016Z,17.90
2022-10-06T10:17:54.887Z,18.80
2022-10-06T10:21:55.935Z,18.10
2022-10-06T10:26:36.127Z,18.90
2022-10-06T10:30:53.161Z,19.50
2022-10-06T10:35:18.333Z,19.70
2022-10-06T10:39:25.979Z,17.80
2022-10-06T10:43:52.048Z,18.80
2022-10-06T10:47:54.601Z,19.80
2022-10-06T10:52:02.385Z,19.20
2022-10-06T10:56:07.274Z,19.10
2022-10-06T11:00:17.795Z,18.60
2022-10-06T11:04:19.804Z,19.40
2022-10-06T11:08:39.785Z,19.30
2022-10-06T11:12:50.248Z,19.00
2022-10-06T11:17:09.983Z,19.80
2022-10-06T11:21:14.812Z,19.10
2022-10-06T11:25:22.670Z,19.10
2022-10-06T11:29:44.222Z,18.20
2022-10-06T11:33:49.148Z,19.70
2022-10-06T11:38:05.882Z,20.30
2022-10-06T11:42:19.743Z,19.80
2022-10-06T11:46:37.606Z,20.70
2022-10-06T11:50:42.434Z,20.80
2022-10-06T11:54:50.392Z,21.20
2022-10-06T11:58:57.863Z,21.60
2022-10-06T12:03:19.557Z,20.70
2022-10-06T12:07:20.694Z,21.70
2022-10-06T12:11:42.187Z,21.30
2022-10-06T12:20:43.230Z,21.90
2022-10-06T12:24:57.027Z,22.30
2022-10-06T12:29:05.155Z,23.50
2022-10-06T12:33:10.089Z,22.70
2022-10-06T12:37:29.801Z,21.70
2022-10-06T12:42:02.550Z,20.80
2022-10-06T12:46:07.372Z,22.10
2022-10-06T12:50:15.314Z,21.70
2022-10-06T12:54:32.325Z,20.90
2022-10-06T12:58:34.041Z,21.30
2022-10-06T13:02:35.315Z,22.30
2022-10-06T13:06:36.479Z,23.90
2022-10-06T13:10:37.712Z,24.60
2022-10-06T13:14:40.215Z,24.20
2022-10-06T13:18:41.433Z,24.80
2022-10-06T13:22:42.492Z,23.90
2022-10-06T13:26:44.771Z,22.50
2022-10-06T13:30:53.436Z,24.30
2022-10-06T13:34:54.532Z,25.90
2022-10-06T13:38:56.169Z,24.10
2022-10-06T13:42:59.371Z,25.60
2022-10-06T13:47:04.117Z,24.60
2022-10-06T13:51:05.533Z,23.80
2022-10-06T13:55:21.787Z,23.00
2022-10-06T13:59:30.036Z,23.90
2022-10-06T14:07:40.648Z,23.20
2022-10-06T14:11:43.488Z,21.70
2022-10-06T14:15:48.748Z,20.90
2022-10-06T14:19:50.562Z,21.20
2022-10-06T14:23:53.100Z,21.20
2022-10-06T14:27:54.615Z,22.20
2022-10-06T14:31:57.484Z,20.00
2022-10-06T14:35:58.470Z,20.20
2022-10-06T14:39:59.723Z,20.20
2022-10-06T14:44:05.361Z,18.90
2022-10-06T14:48:06.976Z,20.30
2022-10-06T14:52:09.829Z,20.20
2022-10-06T14:56:13.539Z,19.70
2022-10-06T15:00:15.577Z,20.80
2022-10-06T15:04:25.920Z,20.70
2022-10-06T15:08:27.122Z,21.60
2022-10-06T15:12:33.170Z,21.50
2022-10-06T15:16:33.721Z,21.00
2022-10-06T15:20:34.844Z,20.60
2022-10-06T15:24:35.875Z,20.70
2022-10-06T15:28:55.233Z,21.10
2022-10-06T15:32:57.029Z,21.20
2022-10-06T15:36:58.617Z,21.00
2022-10-06T15:41:02.451Z,20.70
2022-10-06T15:45:07.523Z,19.00
2022-10-06T15:49:12.926Z,19.20
2022-10-06T15:53:14.275Z,18.50
2022-10-06T15:57:20.598Z,19.80
2022-10-06T16:01:34.884Z,19.90
2022-10-06T16:05:46.687Z,19.50
2022-10-06T16:09:50.250Z,19.10
2022-10-06T16:13:51.704Z,19.40
2022-10-06T16:17:52.899Z,19.20
2022-10-06T16:21:58.613Z,18.90
2022-10-06T16:26:02.353Z,19.10
2022-10-06T16:30:04.504Z,19.30
2022-10-06T16:34:06.067Z,18.90
2022-10-06T16:38:08.121Z,19.20
2022-10-06T16:42:09.249Z,19.60
2022-10-06T16:46:12.774Z,19.50
2022-10-06T16:50:14.339Z,19.10
2022-10-06T16:54:16.682Z,18.20
2022-10-06T16:58:18.845Z,18.00
2022-10-06T17:02:20.228Z,17.80
2022-10-06T17:06:21.872Z,17.50
2022-10-06T17:10:24.438Z,17.50
2022-10-06T17:14:27.030Z,17.00
2022-10-06T17:18:28.783Z,17.20
2022-10-06T17:22:30.979Z,17.00
2022-10-06T17:26:35.507Z,17.20
2022-10-06T17:30:36.660Z,16.60
2022-10-06T17:34:39.383Z,16.00
2022-10-06T17:38:42.844Z,16.30
2022-10-06T17:42:44.081Z,16.10
2022-10-06T17:46:46.677Z,16.00
2022-10-06T17:50:57.607Z,15.90
2022-10-06T17:54:58.682Z,15.80
2022-10-06T17:59:03.050Z,15.70
2022-10-06T18:03:04.225Z,15.50
2022-10-06T18:07:05.956Z,15.40
2022-10-06T18:11:25.739Z,15.10
2022-10-06T18:15:27.112Z,14.90
2022-10-06T18:19:31.719Z,14.80
2022-10-06T18:23:35.323Z,14.70
2022-10-06T18:27:39.444Z,14.70
2022-10-06T18:31:41.874Z,14.50
2022-10-06T18:39:47.698Z,14.30
2022-10-06T18:43:50.188Z,14.30
2022-10-06T18:48:10.198Z,14.00
2022-10-06T18:52:13.070Z,14.00
2022-10-06T18:56:16.145Z,13.90
2022-10-06T19:00:18.836Z,13.80
2022-10-06T19:04:23.124Z,13.70
2022-10-06T19:08:24.848Z,13.30
2022-10-06T19:12:48.325Z,13.40
2022-10-06T19:16:59.960Z,13.00
2022-10-06T19:21:07.280Z,13.00
2022-10-06T19:25:08.491Z,13.10
2022-10-06T19:29:11.624Z,12.90
2022-10-06T19:33:14.051Z,12.80
2022-10-06T19:37:16.294Z,13.00
2022-10-06T19:41:36.884Z,13.00
2022-10-06T19:45:38.961Z,12.70
2022-10-06T19:49:42.225Z,12.90
2022-10-06T19:53:49.333Z,12.80
2022-10-06T19:57:52.056Z,12.50
2022-10-06T20:01:54.745Z,12.30
2022-10-06T20:06:01.704Z,12.60
2022-10-06T20:10:04.429Z,12.50
2022-10-06T20:14:10.277Z,12.30
2022-10-06T20:18:12.829Z,12.30
2022-10-06T20:22:14.827Z,12.10
2022-10-06T20:26:19.225Z,12.00
2022-10-06T20:30:20.690Z,11.60
2022-10-06T20:34:25.748Z,11.50
2022-10-06T20:38:46.730Z,11.80
2022-10-06T20:42:51.588Z,11.80
2022-10-06T20:46:53.915Z,11.30
2022-10-06T20:50:56.074Z,11.50
2022-10-06T20:54:57.237Z,11.70
2022-10-06T20:58:58.991Z,11.60
2022-10-06T21:03:00.089Z,11.40
2022-10-06T21:07:03.266Z,11.40
2022-10-06T21:11:04.576Z,11.50
2022-10-06T21:15:06.379Z,11.60
2022-10-06T21:19:10.329Z,11.30
2022-10-06T21:23:12.643Z,11.20
2022-10-06T21:27:15.874Z,11.20
2022-10-06T21:31:18.647Z,11.10
2022-10-06T21:35:19.920Z,10.90
2022-10-06T21:39:20.793Z,10.40
2022-10-06T21:43:21.868Z,10.50
2022-10-06T21:47:22.863Z,11.10
2022-10-06T21:51:25.270Z,11.10
2022-10-06T21:55:26.439Z,11.00
2022-10-06T21:59:27.420Z,10.80
2022-10-06T22:03:29.321Z,10.80
2022-10-06T22:07:30.473Z,10.70
2022-10-06T22:11:34.911Z,10.50
2022-10-06T22:15:36.358Z,10.50
2022-10-06T22:19:37.572Z,10.10
2022-10-06T22:23:41.767Z,10.40
2022-10-06T22:27:43.398Z,9.90
2022-10-06T22:31:46.917Z,10.40
2022-10-06T22:35:50.862Z,10.40
2022-10-06T22:39:51.702Z,10.30
2022-10-06T22:43:57.041Z,10.60
2022-10-06T22:47:58.154Z,10.50
2022-10-06T22:51:59.177Z,10.60
2022-10-06T22:56:01.220Z,10.40
2022-10-06T23:00:02.297Z,9.90
2022-10-06T23:04:03.502Z,10.10
2022-10-06T23:08:06.323Z,10.20
2022-10-06T23:12:07.185Z,10.20
2022-10-06T23:16:10.511Z,10.10
2022-10-06T23:20:11.645Z,9.90
2022-10-06T23:24:13.007Z,10.00
2022-10-06T23:28:14.227Z,10.00
2022-10-06T23:32:15.532Z,10.00
2022-10-06T23:36:17.800Z,10.10
2022-10-06T23:40:18.802Z,10.00
2022-10-06T23:44:19.779Z,9.80
2022-10-06T23:48:20.903Z,9.70
2022-10-06T23:52:21.811Z,9.80
2022-10-06T23:56:22.937Z,9.70
